sensor_id;sensor_type;location;lat;lon;timestamp;P1;durP1;ratioP1;P2;durP2;ratioP2
20729;SDS011;10526;50.850;12.928;2023-05-13T00:02:13;15.18;;;5.47;;
20729;SDS011;10526;50.850;12.928;2023-05-13T00:06:35;12.05;;;5.50;;
20729;SDS011;10526;50.850;12.928;2023-05-13T00:10:58;12.15;;;4.63;;
20729;SDS011;10526;50.850;12.928;2023-05-13T00:15:20;11.57;;;5.43;;
20729;SDS011;10526;50.850;12.928;2023-05-13T00:19:42;9.40;;;4.65;;
20729;SDS011;10526;50.850;12.928;2023-05-13T00:24:04;11.93;;;5.55;;
20729;SDS011;10526;50.850;12.928;2023-05-13T00:28:26;11.60;;;4.90;;
20729;SDS011;10526;50.850;12.928;2023-05-13T00:32:48;10.02;;;4.90;;
20729;SDS011;10526;50.850;12.928;2023-05-13T00:37:11;9.25;;;4.45;;
20729;SDS011;10526;50.850;12.928;2023-05-13T00:41:34;9.75;;;4.80;;
20729;SDS011;10526;50.850;12.928;2023-05-13T00:45:56;14.52;;;5.45;;
20729;SDS011;10526;50.850;12.928;2023-05-13T00:50:19;12.88;;;6.22;;
20729;SDS011;10526;50.850;12.928;2023-05-13T00:54:42;14.43;;;5.75;;
20729;SDS011;10526;50.850;12.928;2023-05-13T00:59:04;10.25;;;5.45;;
20729;SDS011;10526;50.850;12.928;2023-05-13T01:03:29;16.52;;;6.30;;
20729;SDS011;10526;50.850;12.928;2023-05-13T01:08:06;13.07;;;6.85;;
20729;SDS011;10526;50.850;12.928;2023-05-13T01:12:58;13.35;;;6.18;;
20729;SDS011;10526;50.850;12.928;2023-05-13T01:17:30;14.80;;;6.82;;
20729;SDS011;10526;50.850;12.928;2023-05-13T01:21:56;12.60;;;7.03;;
20729;SDS011;10526;50.850;12.928;2023-05-13T01:26:18;12.20;;;6.63;;
20729;SDS011;10526;50.850;12.928;2023-05-13T01:30:43;13.45;;;6.68;;
20729;SDS011;10526;50.850;12.928;2023-05-13T01:35:07;13.55;;;7.13;;
20729;SDS011;10526;50.850;12.928;2023-05-13T01:39:36;11.55;;;5.90;;
20729;SDS011;10526;50.850;12.928;2023-05-13T01:44:04;12.27;;;6.03;;
20729;SDS011;10526;50.850;12.928;2023-05-13T01:48:27;14.27;;;7.85;;
20729;SDS011;10526;50.850;12.928;2023-05-13T01:52:50;13.23;;;6.47;;
20729;SDS011;10526;50.850;12.928;2023-05-13T01:57:12;11.93;;;5.82;;
20729;SDS011;10526;50.850;12.928;2023-05-13T02:01:35;14.35;;;6.75;;
20729;SDS011;10526;50.850;12.928;2023-05-13T02:05:57;15.05;;;6.60;;
20729;SDS011;10526;50.850;12.928;2023-05-13T02:10:19;14.10;;;6.47;;
20729;SDS011;10526;50.850;12.928;2023-05-13T02:14:42;16.17;;;7.65;;
20729;SDS011;10526;50.850;12.928;2023-05-13T02:19:04;12.77;;;6.60;;
20729;SDS011;10526;50.850;12.928;2023-05-13T02:23:27;11.00;;;6.05;;
20729;SDS011;10526;50.850;12.928;2023-05-13T02:27:49;14.48;;;6.85;;
20729;SDS011;10526;50.850;12.928;2023-05-13T02:32:11;14.52;;;8.15;;
20729;SDS011;10526;50.850;12.928;2023-05-13T02:36:33;13.95;;;7.75;;
20729;SDS011;10526;50.850;12.928;2023-05-13T02:40:57;12.88;;;7.13;;
20729;SDS011;10526;50.850;12.928;2023-05-13T02:45:21;13.50;;;7.43;;
20729;SDS011;10526;50.850;12.928;2023-05-13T02:49:48;14.43;;;8.27;;
20729;SDS011;10526;50.850;12.928;2023-05-13T02:54:10;16.65;;;7.53;;
20729;SDS011;10526;50.850;12.928;2023-05-13T02:58:33;13.90;;;7.43;;
20729;SDS011;10526;50.850;12.928;2023-05-13T03:02:57;13.05;;;7.75;;
20729;SDS011;10526;50.850;12.928;2023-05-13T03:07:19;14.60;;;8.05;;
20729;SDS011;10526;50.850;12.928;2023-05-13T03:11:41;18.58;;;7.90;;
20729;SDS011;10526;50.850;12.928;2023-05-13T03:16:03;16.27;;;8.10;;
20729;SDS011;10526;50.850;12.928;2023-05-13T03:20:26;13.43;;;7.45;;
20729;SDS011;10526;50.850;12.928;2023-05-13T03:24:49;16.30;;;7.88;;
20729;SDS011;10526;50.850;12.928;2023-05-13T03:29:14;16.90;;;9.88;;
20729;SDS011;10526;50.850;12.928;2023-05-13T03:33:36;15.90;;;8.13;;
20729;SDS011;10526;50.850;12.928;2023-05-13T03:37:59;16.00;;;9.02;;
20729;SDS011;10526;50.850;12.928;2023-05-13T03:42:22;13.90;;;8.02;;
20729;SDS011;10526;50.850;12.928;2023-05-13T03:46:45;14.90;;;8.88;;
20729;SDS011;10526;50.850;12.928;2023-05-13T03:51:08;18.63;;;9.32;;
20729;SDS011;10526;50.850;12.928;2023-05-13T03:55:32;22.30;;;11.50;;
20729;SDS011;10526;50.850;12.928;2023-05-13T03:59:54;18.80;;;9.70;;
20729;SDS011;10526;50.850;12.928;2023-05-13T04:04:16;14.73;;;8.45;;
20729;SDS011;10526;50.850;12.928;2023-05-13T04:08:38;14.57;;;7.97;;
20729;SDS011;10526;50.850;12.928;2023-05-13T04:13:02;19.88;;;7.15;;
20729;SDS011;10526;50.850;12.928;2023-05-13T04:17:24;13.35;;;6.30;;
20729;SDS011;10526;50.850;12.928;2023-05-13T04:21:46;12.75;;;5.22;;
20729;SDS011;10526;50.850;12.928;2023-05-13T04:26:08;8.45;;;3.92;;
20729;SDS011;10526;50.850;12.928;2023-05-13T04:30:31;8.73;;;3.95;;
20729;SDS011;10526;50.850;12.928;2023-05-13T04:34:55;8.95;;;3.92;;
20729;SDS011;10526;50.850;12.928;2023-05-13T04:39:19;15.80;;;4.30;;
20729;SDS011;10526;50.850;12.928;2023-05-13T04:43:41;14.27;;;5.88;;
20729;SDS011;10526;50.850;12.928;2023-05-13T04:48:05;13.88;;;6.03;;
20729;SDS011;10526;50.850;12.928;2023-05-13T04:52:28;12.25;;;3.80;;
20729;SDS011;10526;50.850;12.928;2023-05-13T04:56:51;9.27;;;3.75;;
20729;SDS011;10526;50.850;12.928;2023-05-13T05:01:14;9.25;;;3.20;;
20729;SDS011;10526;50.850;12.928;2023-05-13T05:05:36;7.68;;;3.08;;
20729;SDS011;10526;50.850;12.928;2023-05-13T05:10:00;6.20;;;2.80;;
20729;SDS011;10526;50.850;12.928;2023-05-13T05:14:24;5.93;;;3.03;;
20729;SDS011;10526;50.850;12.928;2023-05-13T05:18:47;8.15;;;3.13;;
20729;SDS011;10526;50.850;12.928;2023-05-13T05:23:10;8.98;;;2.65;;
20729;SDS011;10526;50.850;12.928;2023-05-13T05:27:32;10.02;;;2.80;;
20729;SDS011;10526;50.850;12.928;2023-05-13T05:31:55;6.43;;;2.40;;
20729;SDS011;10526;50.850;12.928;2023-05-13T05:36:19;7.35;;;2.95;;
20729;SDS011;10526;50.850;12.928;2023-05-13T05:40:42;5.20;;;2.42;;
20729;SDS011;10526;50.850;12.928;2023-05-13T05:45:06;7.60;;;2.53;;
20729;SDS011;10526;50.850;12.928;2023-05-13T05:49:29;6.28;;;2.70;;
20729;SDS011;10526;50.850;12.928;2023-05-13T05:53:52;5.07;;;2.40;;
20729;SDS011;10526;50.850;12.928;2023-05-13T05:58:14;5.70;;;2.20;;
20729;SDS011;10526;50.850;12.928;2023-05-13T06:02:38;5.40;;;2.22;;
20729;SDS011;10526;50.850;12.928;2023-05-13T06:07:01;3.47;;;2.00;;
20729;SDS011;10526;50.850;12.928;2023-05-13T06:11:23;7.53;;;2.50;;
20729;SDS011;10526;50.850;12.928;2023-05-13T06:15:45;5.43;;;2.30;;
20729;SDS011;10526;50.850;12.928;2023-05-13T06:20:08;4.50;;;2.10;;
20729;SDS011;10526;50.850;12.928;2023-05-13T06:24:31;4.07;;;2.20;;
20729;SDS011;10526;50.850;12.928;2023-05-13T06:28:52;5.28;;;2.40;;
20729;SDS011;10526;50.850;12.928;2023-05-13T06:33:14;5.63;;;2.60;;
20729;SDS011;10526;50.850;12.928;2023-05-13T06:37:37;7.45;;;2.50;;
20729;SDS011;10526;50.850;12.928;2023-05-13T06:41:59;3.90;;;2.20;;
20729;SDS011;10526;50.850;12.928;2023-05-13T06:46:26;4.43;;;2.35;;
20729;SDS011;10526;50.850;12.928;2023-05-13T06:50:49;8.57;;;2.80;;
20729;SDS011;10526;50.850;12.928;2023-05-13T06:55:11;5.90;;;2.72;;
20729;SDS011;10526;50.850;12.928;2023-05-13T06:59:34;5.90;;;2.70;;
20729;SDS011;10526;50.850;12.928;2023-05-13T07:03:56;7.55;;;2.45;;
20729;SDS011;10526;50.850;12.928;2023-05-13T07:08:18;6.30;;;2.28;;
20729;SDS011;10526;50.850;12.928;2023-05-13T07:12:40;9.80;;;2.53;;
20729;SDS011;10526;50.850;12.928;2023-05-13T07:17:02;5.60;;;1.90;;
20729;SDS011;10526;50.850;12.928;2023-05-13T07:21:24;6.43;;;2.47;;
20729;SDS011;10526;50.850;12.928;2023-05-13T07:25:47;5.53;;;2.13;;
20729;SDS011;10526;50.850;12.928;2023-05-13T07:30:10;4.05;;;2.03;;
20729;SDS011;10526;50.850;12.928;2023-05-13T07:34:32;5.53;;;2.10;;
20729;SDS011;10526;50.850;12.928;2023-05-13T07:38:54;3.47;;;1.80;;
20729;SDS011;10526;50.850;12.928;2023-05-13T07:43:17;3.70;;;2.17;;
20729;SDS011;10526;50.850;12.928;2023-05-13T07:47:44;5.32;;;2.00;;
20729;SDS011;10526;50.850;12.928;2023-05-13T07:52:06;7.00;;;2.30;;
20729;SDS011;10526;50.850;12.928;2023-05-13T07:56:28;3.55;;;1.88;;
20729;SDS011;10526;50.850;12.928;2023-05-13T08:00:50;4.10;;;1.88;;
20729;SDS011;10526;50.850;12.928;2023-05-13T08:05:12;4.38;;;2.08;;
20729;SDS011;10526;50.850;12.928;2023-05-13T08:09:34;5.13;;;2.13;;
20729;SDS011;10526;50.850;12.928;2023-05-13T08:13:56;4.82;;;2.15;;
20729;SDS011;10526;50.850;12.928;2023-05-13T08:18:18;2.78;;;2.00;;
20729;SDS011;10526;50.850;12.928;2023-05-13T08:22:40;4.15;;;1.90;;
20729;SDS011;10526;50.850;12.928;2023-05-13T08:27:03;7.57;;;1.98;;
20729;SDS011;10526;50.850;12.928;2023-05-13T08:31:25;3.33;;;1.73;;
20729;SDS011;10526;50.850;12.928;2023-05-13T08:35:48;4.85;;;2.10;;
20729;SDS011;10526;50.850;12.928;2023-05-13T08:40:10;7.10;;;1.88;;
20729;SDS011;10526;50.850;12.928;2023-05-13T08:44:32;3.45;;;1.90;;
20729;SDS011;10526;50.850;12.928;2023-05-13T08:48:59;6.85;;;2.50;;
20729;SDS011;10526;50.850;12.928;2023-05-13T08:53:23;6.65;;;2.28;;
20729;SDS011;10526;50.850;12.928;2023-05-13T08:57:46;4.18;;;2.10;;
20729;SDS011;10526;50.850;12.928;2023-05-13T09:02:09;5.40;;;2.40;;
20729;SDS011;10526;50.850;12.928;2023-05-13T09:06:32;5.10;;;2.17;;
20729;SDS011;10526;50.850;12.928;2023-05-13T09:10:54;3.22;;;1.90;;
20729;SDS011;10526;50.850;12.928;2023-05-13T09:15:18;3.83;;;2.00;;
20729;SDS011;10526;50.850;12.928;2023-05-13T09:19:43;7.10;;;2.28;;
20729;SDS011;10526;50.850;12.928;2023-05-13T09:24:05;8.43;;;2.13;;
20729;SDS011;10526;50.850;12.928;2023-05-13T09:28:31;3.25;;;2.15;;
20729;SDS011;10526;50.850;12.928;2023-05-13T09:33:04;4.35;;;2.20;;
20729;SDS011;10526;50.850;12.928;2023-05-13T09:37:34;5.25;;;2.00;;
20729;SDS011;10526;50.850;12.928;2023-05-13T09:41:56;4.20;;;2.00;;
20729;SDS011;10526;50.850;12.928;2023-05-13T09:46:19;6.90;;;2.15;;
20729;SDS011;10526;50.850;12.928;2023-05-13T09:50:48;4.97;;;2.38;;
20729;SDS011;10526;50.850;12.928;2023-05-13T09:55:11;4.47;;;2.30;;
20729;SDS011;10526;50.850;12.928;2023-05-13T09:59:34;4.40;;;2.30;;
20729;SDS011;10526;50.850;12.928;2023-05-13T10:03:57;5.72;;;2.35;;
20729;SDS011;10526;50.850;12.928;2023-05-13T10:08:20;8.63;;;2.45;;
20729;SDS011;10526;50.850;12.928;2023-05-13T10:12:44;5.53;;;2.80;;
20729;SDS011;10526;50.850;12.928;2023-05-13T10:17:07;8.80;;;3.20;;
20729;SDS011;10526;50.850;12.928;2023-05-13T10:21:29;7.50;;;3.20;;
20729;SDS011;10526;50.850;12.928;2023-05-13T10:25:52;10.32;;;3.25;;
20729;SDS011;10526;50.850;12.928;2023-05-13T10:30:18;7.00;;;3.28;;
20729;SDS011;10526;50.850;12.928;2023-05-13T10:34:46;6.50;;;2.75;;
20729;SDS011;10526;50.850;12.928;2023-05-13T10:39:16;5.95;;;2.70;;
20729;SDS011;10526;50.850;12.928;2023-05-13T10:43:55;8.52;;;3.25;;
20729;SDS011;10526;50.850;12.928;2023-05-13T10:48:20;6.10;;;3.00;;
20729;SDS011;10526;50.850;12.928;2023-05-13T10:52:46;10.25;;;3.92;;
20729;SDS011;10526;50.850;12.928;2023-05-13T10:57:09;9.52;;;4.25;;
20729;SDS011;10526;50.850;12.928;2023-05-13T11:01:37;11.65;;;4.53;;
20729;SDS011;10526;50.850;12.928;2023-05-13T11:06:14;9.93;;;4.50;;
20729;SDS011;10526;50.850;12.928;2023-05-13T11:10:39;10.80;;;3.85;;
20729;SDS011;10526;50.850;12.928;2023-05-13T11:15:19;9.77;;;4.00;;
20729;SDS011;10526;50.850;12.928;2023-05-13T11:19:46;7.43;;;3.17;;
20729;SDS011;10526;50.850;12.928;2023-05-13T11:24:11;7.53;;;3.20;;
20729;SDS011;10526;50.850;12.928;2023-05-13T11:28:52;8.35;;;2.97;;
20729;SDS011;10526;50.850;12.928;2023-05-13T11:33:47;8.00;;;3.15;;
20729;SDS011;10526;50.850;12.928;2023-05-13T11:38:31;6.50;;;2.90;;
20729;SDS011;10526;50.850;12.928;2023-05-13T11:42:54;6.70;;;3.25;;
20729;SDS011;10526;50.850;12.928;2023-05-13T11:47:24;7.95;;;3.40;;
20729;SDS011;10526;50.850;12.928;2023-05-13T11:51:47;5.53;;;2.83;;
20729;SDS011;10526;50.850;12.928;2023-05-13T11:56:09;7.35;;;3.20;;
20729;SDS011;10526;50.850;12.928;2023-05-13T12:00:33;7.25;;;3.20;;
20729;SDS011;10526;50.850;12.928;2023-05-13T12:04:59;8.60;;;3.45;;
20729;SDS011;10526;50.850;12.928;2023-05-13T12:09:24;6.90;;;3.25;;
20729;SDS011;10526;50.850;12.928;2023-05-13T12:13:46;8.30;;;3.85;;
20729;SDS011;10526;50.850;12.928;2023-05-13T12:18:08;6.97;;;3.08;;
20729;SDS011;10526;50.850;12.928;2023-05-13T12:22:31;6.57;;;3.13;;
20729;SDS011;10526;50.850;12.928;2023-05-13T12:27:02;7.65;;;3.60;;
20729;SDS011;10526;50.850;12.928;2023-05-13T12:31:30;8.73;;;3.95;;
20729;SDS011;10526;50.850;12.928;2023-05-13T12:35:53;9.20;;;4.13;;
20729;SDS011;10526;50.850;12.928;2023-05-13T12:40:41;11.27;;;4.00;;
20729;SDS011;10526;50.850;12.928;2023-05-13T12:45:04;6.53;;;3.38;;
20729;SDS011;10526;50.850;12.928;2023-05-13T12:49:27;8.15;;;3.90;;
20729;SDS011;10526;50.850;12.928;2023-05-13T12:53:49;12.00;;;3.80;;
20729;SDS011;10526;50.850;12.928;2023-05-13T12:58:14;6.10;;;3.42;;
20729;SDS011;10526;50.850;12.928;2023-05-13T13:02:38;6.78;;;3.58;;
20729;SDS011;10526;50.850;12.928;2023-05-13T13:07:01;6.85;;;3.63;;
20729;SDS011;10526;50.850;12.928;2023-05-13T13:11:23;7.32;;;3.40;;
20729;SDS011;10526;50.850;12.928;2023-05-13T13:15:45;6.72;;;3.17;;
20729;SDS011;10526;50.850;12.928;2023-05-13T13:20:08;5.10;;;3.30;;
20729;SDS011;10526;50.850;12.928;2023-05-13T13:24:30;5.18;;;2.35;;
20729;SDS011;10526;50.850;12.928;2023-05-13T13:28:52;3.08;;;1.90;;
20729;SDS011;10526;50.850;12.928;2023-05-13T13:33:14;2.40;;;1.77;;
20729;SDS011;10526;50.850;12.928;2023-05-13T13:37:37;4.60;;;2.00;;
20729;SDS011;10526;50.850;12.928;2023-05-13T13:42:00;4.70;;;2.22;;
20729;SDS011;10526;50.850;12.928;2023-05-13T13:46:24;3.92;;;1.80;;
20729;SDS011;10526;50.850;12.928;2023-05-13T13:50:46;4.30;;;1.88;;
20729;SDS011;10526;50.850;12.928;2023-05-13T13:55:11;2.75;;;1.67;;
20729;SDS011;10526;50.850;12.928;2023-05-13T13:59:34;3.38;;;1.83;;
20729;SDS011;10526;50.850;12.928;2023-05-13T14:04:13;3.10;;;1.45;;
20729;SDS011;10526;50.850;12.928;2023-05-13T14:08:40;2.60;;;1.65;;
20729;SDS011;10526;50.850;12.928;2023-05-13T14:13:02;4.78;;;1.70;;
20729;SDS011;10526;50.850;12.928;2023-05-13T14:17:24;3.15;;;1.80;;
20729;SDS011;10526;50.850;12.928;2023-05-13T14:21:46;3.03;;;1.58;;
20729;SDS011;10526;50.850;12.928;2023-05-13T14:26:08;3.88;;;1.90;;
20729;SDS011;10526;50.850;12.928;2023-05-13T14:30:35;5.20;;;2.35;;
20729;SDS011;10526;50.850;12.928;2023-05-13T14:34:57;6.13;;;2.42;;
20729;SDS011;10526;50.850;12.928;2023-05-13T14:39:20;4.32;;;2.40;;
20729;SDS011;10526;50.850;12.928;2023-05-13T14:43:42;3.80;;;2.50;;
20729;SDS011;10526;50.850;12.928;2023-05-13T14:48:04;8.00;;;2.33;;
20729;SDS011;10526;50.850;12.928;2023-05-13T14:52:26;4.50;;;2.47;;
20729;SDS011;10526;50.850;12.928;2023-05-13T14:56:49;7.93;;;2.88;;
20729;SDS011;10526;50.850;12.928;2023-05-13T15:01:12;3.15;;;2.10;;
20729;SDS011;10526;50.850;12.928;2023-05-13T15:05:34;4.65;;;2.65;;
20729;SDS011;10526;50.850;12.928;2023-05-13T15:09:56;5.30;;;2.53;;
20729;SDS011;10526;50.850;12.928;2023-05-13T15:14:18;5.53;;;2.53;;
20729;SDS011;10526;50.850;12.928;2023-05-13T15:18:46;4.75;;;2.15;;
20729;SDS011;10526;50.850;12.928;2023-05-13T15:23:08;5.95;;;2.83;;
20729;SDS011;10526;50.850;12.928;2023-05-13T15:27:30;4.70;;;2.70;;
20729;SDS011;10526;50.850;12.928;2023-05-13T15:31:52;4.30;;;2.50;;
20729;SDS011;10526;50.850;12.928;2023-05-13T15:36:14;3.58;;;2.30;;
20729;SDS011;10526;50.850;12.928;2023-05-13T15:40:36;6.18;;;2.40;;
20729;SDS011;10526;50.850;12.928;2023-05-13T15:44:59;5.32;;;2.33;;
20729;SDS011;10526;50.850;12.928;2023-05-13T15:49:21;4.60;;;2.40;;
20729;SDS011;10526;50.850;12.928;2023-05-13T15:53:43;3.30;;;2.17;;
20729;SDS011;10526;50.850;12.928;2023-05-13T15:58:05;4.03;;;2.13;;
20729;SDS011;10526;50.850;12.928;2023-05-13T16:02:28;5.38;;;2.30;;
20729;SDS011;10526;50.850;12.928;2023-05-13T16:06:57;6.47;;;2.22;;
20729;SDS011;10526;50.850;12.928;2023-05-13T16:11:19;4.18;;;2.40;;
20729;SDS011;10526;50.850;12.928;2023-05-13T16:15:41;5.97;;;2.45;;
20729;SDS011;10526;50.850;12.928;2023-05-13T16:20:03;4.53;;;2.53;;
20729;SDS011;10526;50.850;12.928;2023-05-13T16:24:26;4.50;;;2.17;;
20729;SDS011;10526;50.850;12.928;2023-05-13T16:28:48;4.57;;;2.55;;
20729;SDS011;10526;50.850;12.928;2023-05-13T16:33:10;3.70;;;2.42;;
20729;SDS011;10526;50.850;12.928;2023-05-13T16:37:35;8.65;;;2.75;;
20729;SDS011;10526;50.850;12.928;2023-05-13T16:41:57;10.15;;;3.97;;
20729;SDS011;10526;50.850;12.928;2023-05-13T16:46:19;6.68;;;2.83;;
20729;SDS011;10526;50.850;12.928;2023-05-13T16:50:41;5.28;;;2.55;;
20729;SDS011;10526;50.850;12.928;2023-05-13T16:55:03;4.03;;;2.38;;
20729;SDS011;10526;50.850;12.928;2023-05-13T16:59:27;6.77;;;2.90;;
20729;SDS011;10526;50.850;12.928;2023-05-13T17:03:49;11.75;;;3.75;;
20729;SDS011;10526;50.850;12.928;2023-05-13T17:08:11;9.60;;;3.35;;
20729;SDS011;10526;50.850;12.928;2023-05-13T17:12:33;6.90;;;3.30;;
20729;SDS011;10526;50.850;12.928;2023-05-13T17:16:56;6.22;;;2.53;;
20729;SDS011;10526;50.850;12.928;2023-05-13T17:21:18;9.20;;;2.95;;
20729;SDS011;10526;50.850;12.928;2023-05-13T17:25:40;4.88;;;2.17;;
20729;SDS011;10526;50.850;12.928;2023-05-13T17:30:02;6.57;;;3.20;;
20729;SDS011;10526;50.850;12.928;2023-05-13T17:34:24;6.32;;;2.72;;
20729;SDS011;10526;50.850;12.928;2023-05-13T17:38:47;6.53;;;2.78;;
20729;SDS011;10526;50.850;12.928;2023-05-13T17:43:09;3.78;;;2.10;;
20729;SDS011;10526;50.850;12.928;2023-05-13T17:47:32;6.72;;;2.45;;
20729;SDS011;10526;50.850;12.928;2023-05-13T17:51:53;5.93;;;2.45;;
20729;SDS011;10526;50.850;12.928;2023-05-13T17:56:15;6.75;;;2.72;;
20729;SDS011;10526;50.850;12.928;2023-05-13T18:00:38;6.15;;;2.45;;
20729;SDS011;10526;50.850;12.928;2023-05-13T18:05:00;3.25;;;2.08;;
20729;SDS011;10526;50.850;12.928;2023-05-13T18:09:23;4.03;;;2.30;;
20729;SDS011;10526;50.850;12.928;2023-05-13T18:13:45;6.15;;;2.35;;
20729;SDS011;10526;50.850;12.928;2023-05-13T18:18:07;6.03;;;2.53;;
20729;SDS011;10526;50.850;12.928;2023-05-13T18:22:30;6.68;;;2.30;;
20729;SDS011;10526;50.850;12.928;2023-05-13T18:26:52;5.72;;;2.28;;
20729;SDS011;10526;50.850;12.928;2023-05-13T18:31:14;5.60;;;2.53;;
20729;SDS011;10526;50.850;12.928;2023-05-13T18:35:36;6.00;;;2.50;;
20729;SDS011;10526;50.850;12.928;2023-05-13T18:40:00;4.85;;;2.33;;
20729;SDS011;10526;50.850;12.928;2023-05-13T18:44:23;9.05;;;2.50;;
20729;SDS011;10526;50.850;12.928;2023-05-13T18:48:45;6.95;;;2.47;;
20729;SDS011;10526;50.850;12.928;2023-05-13T18:53:08;6.32;;;2.88;;
20729;SDS011;10526;50.850;12.928;2023-05-13T18:57:30;8.27;;;2.72;;
20729;SDS011;10526;50.850;12.928;2023-05-13T19:01:52;8.02;;;3.05;;
20729;SDS011;10526;50.850;12.928;2023-05-13T19:06:14;7.47;;;2.80;;
20729;SDS011;10526;50.850;12.928;2023-05-13T19:10:36;6.07;;;2.95;;
20729;SDS011;10526;50.850;12.928;2023-05-13T19:15:00;9.63;;;3.40;;
20729;SDS011;10526;50.850;12.928;2023-05-13T19:19:22;12.45;;;4.07;;
20729;SDS011;10526;50.850;12.928;2023-05-13T19:23:44;35.08;;;14.15;;
20729;SDS011;10526;50.850;12.928;2023-05-13T19:28:07;7.93;;;3.65;;
20729;SDS011;10526;50.850;12.928;2023-05-13T19:32:30;8.23;;;3.42;;
20729;SDS011;10526;50.850;12.928;2023-05-13T19:36:52;7.82;;;3.78;;
20729;SDS011;10526;50.850;12.928;2023-05-13T19:41:14;10.02;;;3.55;;
20729;SDS011;10526;50.850;12.928;2023-05-13T19:45:36;16.88;;;6.53;;
20729;SDS011;10526;50.850;12.928;2023-05-13T19:49:58;11.20;;;4.55;;
20729;SDS011;10526;50.850;12.928;2023-05-13T19:54:20;13.57;;;4.10;;
20729;SDS011;10526;50.850;12.928;2023-05-13T19:58:42;7.75;;;3.45;;
20729;SDS011;10526;50.850;12.928;2023-05-13T20:03:03;7.72;;;3.67;;
20729;SDS011;10526;50.850;12.928;2023-05-13T20:07:26;7.53;;;3.38;;
20729;SDS011;10526;50.850;12.928;2023-05-13T20:11:49;7.32;;;3.63;;
20729;SDS011;10526;50.850;12.928;2023-05-13T20:16:11;9.02;;;3.92;;
20729;SDS011;10526;50.850;12.928;2023-05-13T20:20:34;7.90;;;3.63;;
20729;SDS011;10526;50.850;12.928;2023-05-13T20:24:56;9.85;;;3.25;;
20729;SDS011;10526;50.850;12.928;2023-05-13T20:29:18;9.45;;;3.78;;
20729;SDS011;10526;50.850;12.928;2023-05-13T20:33:40;9.15;;;4.40;;
20729;SDS011;10526;50.850;12.928;2023-05-13T20:38:02;8.43;;;4.00;;
20729;SDS011;10526;50.850;12.928;2023-05-13T20:42:24;7.82;;;3.90;;
20729;SDS011;10526;50.850;12.928;2023-05-13T20:46:47;8.80;;;4.00;;
20729;SDS011;10526;50.850;12.928;2023-05-13T20:51:10;8.32;;;4.13;;
20729;SDS011;10526;50.850;12.928;2023-05-13T20:55:36;14.85;;;6.32;;
20729;SDS011;10526;50.850;12.928;2023-05-13T20:59:58;17.17;;;6.60;;
20729;SDS011;10526;50.850;12.928;2023-05-13T21:04:20;8.88;;;4.40;;
20729;SDS011;10526;50.850;12.928;2023-05-13T21:08:45;12.50;;;5.13;;
20729;SDS011;10526;50.850;12.928;2023-05-13T21:13:07;11.10;;;4.50;;
20729;SDS011;10526;50.850;12.928;2023-05-13T21:17:30;13.77;;;5.15;;
20729;SDS011;10526;50.850;12.928;2023-05-13T21:21:52;10.10;;;5.20;;
20729;SDS011;10526;50.850;12.928;2023-05-13T21:26:14;14.07;;;5.53;;
20729;SDS011;10526;50.850;12.928;2023-05-13T21:30:37;13.45;;;5.82;;
20729;SDS011;10526;50.850;12.928;2023-05-13T21:34:59;17.13;;;6.15;;
20729;SDS011;10526;50.850;12.928;2023-05-13T21:39:22;13.30;;;6.05;;
20729;SDS011;10526;50.850;12.928;2023-05-13T21:43:44;18.05;;;6.80;;
20729;SDS011;10526;50.850;12.928;2023-05-13T21:48:06;13.23;;;6.20;;
20729;SDS011;10526;50.850;12.928;2023-05-13T21:52:29;12.98;;;6.32;;
20729;SDS011;10526;50.850;12.928;2023-05-13T21:56:51;13.45;;;5.90;;
20729;SDS011;10526;50.850;12.928;2023-05-13T22:01:13;15.15;;;7.97;;
20729;SDS011;10526;50.850;12.928;2023-05-13T22:05:35;14.85;;;8.38;;
20729;SDS011;10526;50.850;12.928;2023-05-13T22:10:03;18.48;;;9.27;;
20729;SDS011;10526;50.850;12.928;2023-05-13T22:14:26;17.20;;;9.30;;
20729;SDS011;10526;50.850;12.928;2023-05-13T22:18:49;17.98;;;10.05;;
20729;SDS011;10526;50.850;12.928;2023-05-13T22:23:11;19.85;;;11.15;;
20729;SDS011;10526;50.850;12.928;2023-05-13T22:27:33;22.60;;;11.25;;
20729;SDS011;10526;50.850;12.928;2023-05-13T22:31:56;18.35;;;10.57;;
20729;SDS011;10526;50.850;12.928;2023-05-13T22:36:18;18.13;;;9.73;;
20729;SDS011;10526;50.850;12.928;2023-05-13T22:40:40;16.77;;;10.13;;
20729;SDS011;10526;50.850;12.928;2023-05-13T22:45:03;18.02;;;9.07;;
20729;SDS011;10526;50.850;12.928;2023-05-13T22:49:25;17.63;;;10.55;;
20729;SDS011;10526;50.850;12.928;2023-05-13T22:53:47;15.77;;;8.82;;
20729;SDS011;10526;50.850;12.928;2023-05-13T22:58:09;23.45;;;11.90;;
20729;SDS011;10526;50.850;12.928;2023-05-13T23:02:32;19.30;;;10.05;;
20729;SDS011;10526;50.850;12.928;2023-05-13T23:06:54;19.58;;;9.85;;
20729;SDS011;10526;50.850;12.928;2023-05-13T23:11:16;15.98;;;9.35;;
20729;SDS011;10526;50.850;12.928;2023-05-13T23:15:38;16.73;;;9.80;;
20729;SDS011;10526;50.850;12.928;2023-05-13T23:20:00;19.25;;;10.00;;
20729;SDS011;10526;50.850;12.928;2023-05-13T23:24:22;18.48;;;10.82;;
20729;SDS011;10526;50.850;12.928;2023-05-13T23:28:45;18.50;;;10.32;;
20729;SDS011;10526;50.850;12.928;2023-05-13T23:33:07;19.30;;;9.65;;
20729;SDS011;10526;50.850;12.928;2023-05-13T23:37:29;18.33;;;10.50;;
20729;SDS011;10526;50.850;12.928;2023-05-13T23:41:51;19.15;;;10.32;;
20729;SDS011;10526;50.850;12.928;2023-05-13T23:46:13;20.95;;;10.25;;
20729;SDS011;10526;50.850;12.928;2023-05-13T23:50:36;21.77;;;12.93;;
20729;SDS011;10526;50.850;12.928;2023-05-13T23:54:57;21.40;;;12.70;;
20729;SDS011;10526;50.850;12.928;2023-05-13T23:59:20;21.80;;;12.52;;
